Time;durP1;ratioP1;P1;durP2;ratioP2;P2;SDS_P1;SDS_P2;PMS_P1;PMS_P2;Temp;Humidity;BMP_temperature;BMP_pressure;BME280_temperature;BME280_humidity;BME280_pressure;Samples;Min_cycle;Max_cycle;Signal;HPM_P1;HPM_P2
2022/10/14 00:01:05;;;;;;;36.65;22.60;;;;;;;9.50;100.00;100530.19;1727615;82;21023;-69
2022/10/14 00:03:33;;;;;;;37.73;23.42;;;;;;;9.51;100.00;100531.02;1719729;81;21054;-69
2022/10/14 00:08:00;;;;;;;40.70;24.20;;;;;;;9.48;100.00;100520.64;1847377;76;22973;-70
2022/10/14 00:10:28;;;;;;;35.45;23.52;;;;;;;9.39;100.00;100527.00;1825438;77;20995;-70
2022/10/14 00:12:54;;;;;;;;;;;;;;;9.45;100.00;100524.68;1830763;77;21098;-70
2022/10/14 00:15:21;;;;;;;36.30;24.02;;;;;;;9.48;100.00;100524.71;1828010;77;20156;-70
2022/10/14 00:17:49;;;;;;;36.25;23.73;;;;;;;9.45;100.00;100519.77;1843479;77;21059;-70
2022/10/14 00:20:16;;;;;;;42.35;25.48;;;;;;;9.43;100.00;100524.61;1838798;77;21763;-70
2022/10/14 00:22:43;;;;;;;33.48;23.90;;;;;;;9.38;100.00;100519.94;1829376;77;21112;-69
2022/10/14 00:25:10;;;;;;;38.53;23.67;;;;;;;9.33;100.00;100517.64;1843684;77;20987;-70
2022/10/14 00:27:38;;;;;;;36.23;23.50;;;;;;;9.31;100.00;100521.98;1838018;77;21058;-70
2022/10/14 00:30:08;;;;;;;37.73;23.15;;;;;;;9.30;100.00;100522.22;1839071;77;21052;-70
2022/10/14 00:32:35;;;;;;;40.50;23.75;;;;;;;9.28;100.00;100520.29;1848511;77;21635;-69
2022/10/14 00:35:01;;;;;;;37.60;23.67;;;;;;;9.23;100.00;100514.22;1841785;77;20995;-70
2022/10/14 00:37:30;;;;;;;38.05;22.93;;;;;;;9.19;100.00;100518.48;1780973;79;21062;-70
2022/10/14 00:39:57;;;;;;;;;;;;;;;9.15;100.00;100514.61;1762690;80;21051;-70
2022/10/14 00:42:24;;;;;;;36.60;22.23;;;;;;;9.13;100.00;100508.61;1801759;79;20629;-69
2022/10/14 00:45:02;;;;;;;37.88;21.70;;;;;;;9.12;100.00;100510.19;1778540;79;21034;-70
2022/10/14 00:47:29;;;;;;;33.58;21.27;;;;;;;9.12;100.00;100504.23;1759246;80;21669;-69
2022/10/14 00:49:56;;;;;;;32.93;20.90;;;;;;;9.10;100.00;100508.27;1781447;79;21014;-70
2022/10/14 00:52:23;;;;;;;35.05;20.68;;;;;;;9.04;100.00;100508.69;1773912;80;21144;-69
2022/10/14 00:55:00;;;;;;;35.33;20.45;;;;;;;8.97;100.00;100503.94;1807688;79;21027;-69
2022/10/14 00:57:27;;;;;;;31.62;19.37;;;;;;;8.92;100.00;100503.33;1778213;79;21074;-69
2022/10/14 00:59:57;;;;;;;32.78;19.25;;;;;;;8.93;100.00;100508.20;1771865;80;21058;-70
2022/10/14 01:02:24;;;;;;;29.50;19.10;;;;;;;8.91;100.00;100502.20;1787791;79;21070;-70
2022/10/14 01:04:51;;;;;;;34.05;20.85;;;;;;;8.86;100.00;100498.84;1804299;79;21038;-69
2022/10/14 01:07:42;;;;;;;29.07;19.35;;;;;;;8.80;100.00;100494.92;1805568;78;21082;-70
2022/10/14 01:10:17;;;;;;;31.20;19.80;;;;;;;8.73;100.00;100496.95;1796210;79;20991;-69
2022/10/14 01:13:18;;;;;;;30.00;19.73;;;;;;;8.68;100.00;100491.44;1774841;79;21035;-69
2022/10/14 01:15:56;;;;;;;30.57;19.20;;;;;;;8.65;100.00;100491.36;1742038;80;21217;-70
2022/10/14 01:18:40;;;;;;;37.17;22.70;;;;;;;8.63;100.00;100489.97;1771775;79;21343;-69
2022/10/14 01:21:15;;;;;;;34.90;22.70;;;;;;;8.60;100.00;100493.99;1772833;79;21039;-69
2022/10/14 01:24:01;;;;;;;36.63;22.60;;;;;;;8.53;100.00;100495.19;1781515;80;21035;-68
2022/10/14 01:26:43;;;;;;;33.55;21.37;;;;;;;8.43;100.00;100487.11;1793388;80;21152;-69
2022/10/14 01:29:27;;;;;;;33.53;20.45;;;;;;;8.41;100.00;100490.61;1777621;80;21041;-69
2022/10/14 01:32:09;;;;;;;34.50;20.75;;;;;;;8.43;100.00;100492.54;1765555;80;21673;-69
2022/10/14 01:34:41;;;;;;;38.08;20.35;;;;;;;8.44;100.00;100479.27;1679599;80;21094;-69
2022/10/14 01:37:17;;;;;;;34.27;21.02;;;;;;;8.43;100.00;100483.05;1767823;79;21086;-69
2022/10/14 01:39:49;;;;;;;30.32;19.37;;;;;;;8.37;100.00;100485.36;1793088;79;21081;-68
2022/10/14 01:42:23;;;;;;;32.03;19.10;;;;;;;8.32;100.00;100487.16;1781117;79;21103;-70
2022/10/14 01:44:55;;;;;;;32.30;18.92;;;;;;;8.32;100.00;100490.70;1761355;80;21035;-70
2022/10/14 01:47:23;;;;;;;29.92;19.02;;;;;;;8.33;100.00;100489.61;1770976;79;21073;-69
2022/10/14 01:49:55;;;;;;;33.28;19.60;;;;;;;8.32;100.00;100485.80;1774608;80;22082;-69
2022/10/14 01:52:30;;;;;;;33.40;19.57;;;;;;;8.31;100.00;100486.33;1768704;80;21945;-69
2022/10/14 01:54:59;;;;;;;33.75;21.10;;;;;;;8.26;100.00;100486.17;1782401;79;21054;-69
2022/10/14 01:57:28;;;;;;;33.83;20.70;;;;;;;8.24;100.00;100485.60;1791628;79;21043;-69
2022/10/14 01:59:55;;;;;;;33.53;20.15;;;;;;;8.25;100.00;100484.55;1788694;80;21524;-70
2022/10/14 02:02:22;;;;;;;30.62;19.35;;;;;;;8.29;100.00;100484.37;1784064;79;21934;-69
2022/10/14 02:04:50;;;;;;;35.68;19.98;;;;;;;8.32;100.00;100479.85;1778531;79;20967;-70
2022/10/14 02:07:30;;;;;;;32.90;19.45;;;;;;;8.36;100.00;100486.42;1771959;80;21062;-69
2022/10/14 02:10:08;;;;;;;32.13;19.77;;;;;;;8.37;100.00;100479.11;1769978;80;21038;-69
2022/10/14 02:12:40;;;;;;;33.40;20.70;;;;;;;8.33;100.00;100483.36;1769658;79;21099;-70
2022/10/14 02:15:43;;;;;;;28.77;18.80;;;;;;;8.29;100.00;100483.02;1785970;79;21336;-70
2022/10/14 02:18:22;;;;;;;29.23;18.10;;;;;;;8.31;100.00;100479.55;1782902;79;21169;-70
2022/10/14 02:21:00;;;;;;;26.42;17.25;;;;;;;8.33;100.00;100477.94;1774536;79;21018;-69
2022/10/14 02:23:31;;;;;;;30.00;18.05;;;;;;;8.37;100.00;100481.83;1770389;79;21116;-70
2022/10/14 02:25:58;;;;;;;34.65;19.35;;;;;;;8.37;100.00;100480.47;1793006;80;21034;-69
2022/10/14 02:28:26;;;;;;;30.82;19.23;;;;;;;8.33;100.00;100477.94;1784953;80;21041;-70
2022/10/14 02:30:56;;;;;;;30.72;18.62;;;;;;;8.29;100.00;100474.87;1782761;80;21074;-70
2022/10/14 02:33:27;;;;;;;30.35;16.95;;;;;;;8.31;100.00;100482.79;1769720;80;21542;-69
2022/10/14 02:35:56;;;;;;;28.42;17.30;;;;;;;8.36;100.00;100482.91;1788546;80;21026;-69
2022/10/14 02:38:23;;;;;;;29.95;17.32;;;;;;;8.39;100.00;100477.83;1788548;79;21073;-69
2022/10/14 02:40:52;;;;;;;32.48;18.20;;;;;;;8.41;100.00;100481.64;1780557;79;21050;-69
2022/10/14 02:43:19;;;;;;;27.60;17.75;;;;;;;8.37;100.00;100481.30;1770524;79;21074;-70
2022/10/14 02:45:45;;;;;;;28.50;16.80;;;;;;;8.34;100.00;100482.30;1769783;79;21011;-70
2022/10/14 02:48:13;;;;;;;28.30;16.95;;;;;;;8.34;100.00;100480.42;1770727;79;21050;-70
2022/10/14 02:50:41;;;;;;;29.07;16.65;;;;;;;8.40;100.00;100479.98;1779293;80;21241;-69
2022/10/14 02:53:07;;;;;;;25.25;16.17;;;;;;;8.43;100.00;100476.81;1776373;79;21580;-69
2022/10/14 02:55:34;;;;;;;25.72;16.27;;;;;;;8.46;100.00;100484.47;1780344;79;21029;-69
2022/10/14 02:58:01;;;;;;;31.00;16.75;;;;;;;8.46;100.00;100486.66;1776881;79;21133;-68
2022/10/14 03:00:28;;;;;;;;;;;;;;;8.43;100.00;100480.89;1783188;80;21350;-70
2022/10/14 03:02:55;;;;;;;25.08;15.95;;;;;;;8.38;100.00;100484.31;1768453;79;20130;-70
2022/10/14 03:05:23;;;;;;;28.32;16.42;;;;;;;8.26;100.00;100479.39;1792102;79;21019;-69
2022/10/14 03:07:50;;;;;;;25.55;15.70;;;;;;;8.25;100.00;100472.88;1788624;79;21109;-69
2022/10/14 03:10:18;;;;;;;29.72;16.27;;;;;;;8.27;100.00;100480.23;1777035;79;21015;-70
2022/10/14 03:12:45;;;;;;;24.70;15.32;;;;;;;8.28;100.00;100476.45;1786787;79;21078;-68
2022/10/14 03:15:15;;;;;;;25.55;16.05;;;;;;;8.29;100.00;100474.87;1791740;79;21607;-70
2022/10/14 03:17:41;;;;;;;27.45;16.75;;;;;;;8.27;100.00;100470.20;1786588;79;21620;-69
2022/10/14 03:20:10;;;;;;;24.35;15.88;;;;;;;8.20;100.00;100470.86;1775251;79;21045;-69
2022/10/14 03:22:41;;;;;;;24.65;16.45;;;;;;;8.15;100.00;100469.38;1786998;80;21461;-69
2022/10/14 03:25:09;;;;;;;26.17;15.48;;;;;;;8.12;100.00;100473.11;1789797;80;21019;-69
2022/10/14 03:27:40;;;;;;;29.00;16.27;;;;;;;8.14;100.00;100470.47;1771799;79;21078;-68
2022/10/14 03:30:09;;;;;;;26.23;15.78;;;;;;;8.14;100.00;100471.00;1768474;79;21014;-69
2022/10/14 03:32:38;;;;;;;25.77;16.40;;;;;;;8.09;100.00;100467.63;1773448;80;21061;-69
2022/10/14 03:35:15;;;;;;;27.13;15.00;;;;;;;8.02;100.00;100469.64;1769351;79;21510;-68
2022/10/14 03:37:43;;;;;;;23.10;15.08;;;;;;;8.00;100.00;100473.97;1785805;79;21113;-68
2022/10/14 03:40:11;;;;;;;26.77;16.32;;;;;;;8.00;100.00;100473.97;1765431;80;21075;-68
2022/10/14 03:42:40;;;;;;;25.02;15.70;;;;;;;8.00;100.00;100474.49;1753065;80;21066;-68
2022/10/14 03:45:07;;;;;;;27.70;16.30;;;;;;;7.96;100.00;100474.67;1780562;80;20976;-68
2022/10/14 03:47:37;;;;;;;24.18;15.18;;;;;;;7.88;100.00;100470.42;1763169;80;21121;-69
2022/10/14 03:50:04;;;;;;;;;;;;;;;7.84;100.00;100470.59;1789186;79;21562;-68
2022/10/14 03:52:32;;;;;;;24.60;15.30;;;;;;;7.85;100.00;100468.72;1768540;80;20158;-68
2022/10/14 03:55:04;;;;;;;26.52;15.32;;;;;;;7.80;100.00;100469.94;1777606;79;21011;-69
2022/10/14 03:57:31;;;;;;;25.43;15.35;;;;;;;7.76;100.00;100470.14;1796089;79;21427;-69
2022/10/14 03:59:58;;;;;;;29.48;15.25;;;;;;;7.69;100.00;100472.95;1770741;79;21052;-68
2022/10/14 04:02:27;;;;;;;26.10;15.53;;;;;;;7.62;100.00;100474.11;1775470;79;21109;-69
2022/10/14 04:04:55;;;;;;;26.90;15.40;;;;;;;7.57;100.00;100469.42;1780102;79;20986;-69
2022/10/14 04:07:22;;;;;;;25.27;14.93;;;;;;;7.60;100.00;100477.60;1786877;79;21402;-68
2022/10/14 04:09:50;;;;;;;30.37;15.72;;;;;;;7.58;100.00;100471.61;1770909;80;20994;-69
2022/10/14 04:12:18;;;;;;;25.30;15.18;;;;;;;7.54;100.00;100469.89;1755758;80;21077;-68
2022/10/14 04:14:50;;;;;;;30.32;15.30;;;;;;;7.53;100.00;100468.23;1757951;81;21067;-69
2022/10/14 04:17:17;;;;;;;22.98;15.72;;;;;;;7.50;100.00;100477.66;1740210;82;21168;-69
2022/10/14 04:19:44;;;;;;;25.72;16.27;;;;;;;7.47;100.00;100474.59;1780027;80;21339;-69
2022/10/14 04:22:13;;;;;;;30.08;15.88;;;;;;;7.47;100.00;100474.04;1780758;80;21319;-68
2022/10/14 04:24:39;;;;;;;26.30;15.38;;;;;;;7.53;100.00;100479.07;1762168;81;21013;-68
2022/10/14 04:27:07;;;;;;;26.48;15.63;;;;;;;7.57;100.00;100474.84;1773258;80;21045;-69
2022/10/14 04:29:41;;;;;;;28.87;15.10;;;;;;;7.60;100.00;100485.20;1766043;80;21574;-68
2022/10/14 04:32:09;;;;;;;23.65;15.78;;;;;;;7.58;100.00;100478.38;1747495;82;21069;-68
2022/10/14 04:34:36;;;;;;;25.95;16.20;;;;;;;7.55;100.00;100483.71;1753983;80;21009;-68
2022/10/14 04:37:05;;;;;;;27.70;16.27;;;;;;;7.57;100.00;100482.14;1760053;81;21132;-68
2022/10/14 04:39:33;;;;;;;30.88;16.45;;;;;;;7.64;100.00;100480.14;1744663;80;21033;-68
2022/10/14 04:42:00;;;;;;;28.00;16.00;;;;;;;7.69;100.00;100482.43;1763335;80;20994;-67
2022/10/14 04:44:27;;;;;;;25.00;16.02;;;;;;;7.74;100.00;100476.31;1757689;81;21061;-68
2022/10/14 04:46:54;;;;;;;24.80;16.17;;;;;;;7.78;100.00;100482.39;1761893;80;21604;-68
2022/10/14 04:49:22;;;;;;;27.42;17.12;;;;;;;7.78;100.00;100483.75;1751818;81;20990;-67
2022/10/14 04:51:51;;;;;;;26.95;16.50;;;;;;;7.78;100.00;100481.03;1719020;82;21080;-67
2022/10/14 04:54:19;;;;;;;24.05;15.05;;;;;;;7.83;100.00;100485.77;1737821;81;21121;-67
2022/10/14 04:56:51;;;;;;;28.27;15.50;;;;;;;7.92;100.00;100481.63;1747566;82;21096;-68
2022/10/14 04:59:19;;;;;;;25.35;16.35;;;;;;;7.99;100.00;100480.44;1749979;82;21131;-67
2022/10/14 05:02:00;;;;;;;26.45;16.48;;;;;;;8.05;100.00;100483.25;1748415;80;21639;-67
2022/10/14 05:04:28;;;;;;;25.82;17.55;;;;;;;8.05;100.00;100481.37;1780342;80;21548;-67
2022/10/14 05:06:57;;;;;;;27.87;16.12;;;;;;;8.05;100.00;100488.15;1777322;80;21144;-67
2022/10/14 05:09:24;;;;;;;26.33;15.63;;;;;;;8.05;100.00;100486.80;1763303;80;22352;-67
2022/10/14 05:11:50;;;;;;;;;;;;;;;8.12;100.00;100498.87;1798747;80;21074;-67
2022/10/14 05:14:21;;;;;;;26.73;15.83;;;;;;;8.20;100.00;100490.38;1794816;80;20170;-67
2022/10/14 05:16:50;;;;;;;24.18;15.30;;;;;;;8.22;100.00;100490.42;1774803;79;21098;-67
2022/10/14 05:19:19;;;;;;;24.00;15.28;;;;;;;8.28;100.00;100493.59;1793091;79;21018;-67
2022/10/14 05:21:49;;;;;;;24.27;15.48;;;;;;;8.32;100.00;100485.80;1795454;79;21129;-68
2022/10/14 05:24:17;;;;;;;29.60;16.27;;;;;;;8.31;100.00;100487.69;1788384;79;21061;-67
2022/10/14 05:26:44;;;;;;;26.70;16.23;;;;;;;8.34;100.00;100493.16;1783312;80;21125;-68
2022/10/14 05:29:12;;;;;;;26.50;15.95;;;;;;;8.39;100.00;100499.53;1765328;81;21062;-67
2022/10/14 05:31:39;;;;;;;24.63;16.30;;;;;;;8.48;100.00;100502.69;1765596;80;21592;-68
2022/10/14 05:34:17;;;;;;;23.52;16.25;;;;;;;8.56;100.00;100502.84;1768188;79;21090;-68
2022/10/14 05:36:44;;;;;;;34.03;21.60;;;;;;;8.60;100.00;100502.66;1784698;80;21073;-68
2022/10/14 05:39:11;;;;;;;96.92;53.35;;;;;;;8.59;100.00;100512.69;1796566;79;21561;-68
2022/10/14 05:41:38;;;;;;;72.82;42.13;;;;;;;8.63;100.00;100511.16;1796432;79;20998;-68
2022/10/14 05:44:05;;;;;;;55.25;32.28;;;;;;;8.71;100.00;100504.52;1795561;80;21065;-69
2022/10/14 05:46:32;;;;;;;46.05;29.15;;;;;;;8.80;100.00;100505.78;1796638;80;21061;-68
2022/10/14 05:49:01;;;;;;;41.13;25.70;;;;;;;8.84;100.00;100508.30;1796813;80;21026;-68
2022/10/14 05:51:28;;;;;;;39.35;23.22;;;;;;;8.84;100.00;100502.34;1781970;79;21082;-68
2022/10/14 05:53:56;;;;;;;26.33;17.37;;;;;;;8.82;100.00;100506.38;1790726;79;21904;-68
2022/10/14 05:56:24;;;;;;;28.83;16.20;;;;;;;8.84;100.00;100510.49;1787787;79;21121;-69
2022/10/14 05:58:50;;;;;;;27.95;17.32;;;;;;;8.89;100.00;100515.20;1768817;80;21069;-69
2022/10/14 06:01:17;;;;;;;58.17;43.15;;;;;;;8.94;100.00;100510.69;1780679;79;21085;-67
2022/10/14 06:03:44;;;;;;;50.83;37.78;;;;;;;8.98;100.00;100513.21;1771236;79;21055;-68
2022/10/14 06:06:14;;;;;;;36.45;27.25;;;;;;;9.04;100.00;100519.55;1783979;80;21046;-68
2022/10/14 06:08:41;;;;;;;26.97;19.00;;;;;;;9.08;100.00;100518.53;1782299;79;21101;-68
2022/10/14 06:11:11;;;;;;;34.15;20.35;;;;;;;9.10;100.00;100519.96;1776140;79;21493;-67
2022/10/14 06:13:38;;;;;;;28.60;19.27;;;;;;;9.14;100.00;100526.53;1774490;79;21044;-68
2022/10/14 06:16:08;;;;;;;27.27;19.23;;;;;;;9.23;100.00;100522.90;1773727;79;20972;-68
2022/10/14 06:18:36;;;;;;;23.15;14.98;;;;;;;9.28;100.00;100527.08;1773495;80;21511;-67
2022/10/14 06:21:02;;;;;;;;;;;;;;;9.31;100.00;100521.16;1776258;79;20963;-69
2022/10/14 06:23:29;;;;;;;22.30;14.05;;;;;;;9.37;100.00;100521.52;1783880;80;20109;-68
2022/10/14 06:25:55;;;;;;;;;;;;;;;9.35;100.00;100525.83;1774852;80;20990;-68
2022/10/14 06:28:21;;;;;;;23.62;13.32;;;;;;;9.46;100.00;100526.84;1773561;80;20562;-69
2022/10/14 06:30:52;;;;;;;29.25;17.40;;;;;;;9.49;100.00;100531.25;1776898;79;21505;-68
2022/10/14 06:33:19;;;;;;;28.27;16.45;;;;;;;9.59;100.00;100530.62;1783290;80;21160;-68
2022/10/14 06:35:46;;;;;;;23.83;13.62;;;;;;;9.67;100.00;100530.75;1748163;80;21006;-68
2022/10/14 06:38:12;;;;;;;24.40;13.32;;;;;;;9.74;100.00;100530.05;1773286;79;21124;-71
2022/10/14 06:40:39;;;;;;;19.70;11.83;;;;;;;9.77;100.00;100527.66;1763022;79;21507;-69
2022/10/14 06:43:07;;;;;;;21.35;12.28;;;;;;;9.86;100.00;100537.58;1757811;80;21066;-68
2022/10/14 06:45:34;;;;;;;21.25;12.18;;;;;;;10.00;100.00;100533.45;1780486;79;21608;-68
2022/10/14 06:48:00;;;;;;;19.05;11.45;;;;;;;10.11;100.00;100532.53;1773362;79;21183;-68
2022/10/14 06:50:26;;;;;;;;;;;;;;;10.19;100.00;100535.40;1778464;80;21055;-69
2022/10/14 06:52:53;;;;;;;17.45;10.08;;;;;;;10.20;100.00;100536.49;1784869;79;20133;-69
2022/10/14 06:55:20;;;;;;;18.10;11.20;;;;;;;10.18;100.00;100537.83;1793902;78;21012;-69
2022/10/14 06:57:47;;;;;;;16.50;10.32;;;;;;;10.26;100.00;100530.08;1762432;80;21578;-68
2022/10/14 07:00:17;;;;;;;15.88;10.05;;;;;;;10.37;100.00;100529.15;1772031;79;21019;-68
2022/10/14 07:02:44;;;;;;;17.12;9.38;;;;;;;10.44;100.00;100526.23;1770669;80;21609;-69
2022/10/14 07:05:10;;;;;;;16.75;10.45;;;;;;;10.53;100.00;100523.89;1775013;79;20988;-69
2022/10/14 07:07:38;;;;;;;14.83;8.43;;;;;;;10.50;100.00;100518.41;1789430;79;21046;-69
2022/10/14 07:10:05;;;;;;;18.55;9.10;;;;;;;10.59;100.00;100518.81;1783733;80;21014;-69
2022/10/14 07:12:32;;;;;;;19.67;9.88;;;;;;;10.68;100.00;100515.92;1793839;79;21647;-70
2022/10/14 07:14:59;;;;;;;15.65;8.60;;;;;;;10.77;100.00;100513.05;1783922;79;21002;-69
2022/10/14 07:17:26;;;;;;;20.60;10.45;;;;;;;10.87;100.00;100514.53;1791934;79;21742;-70
2022/10/14 07:19:55;;;;;;;18.85;11.05;;;;;;;10.90;100.00;100514.84;1784795;80;21398;-69
2022/10/14 07:22:21;;;;;;;;;;;;;;;11.00;100.00;100514.13;1799528;80;21074;-69
2022/10/14 07:24:47;;;;;;;20.20;10.80;;;;;;;11.17;100.00;100511.30;1782056;79;20139;-68
2022/10/14 07:27:15;;;;;;;19.77;10.65;;;;;;;11.25;100.00;100510.84;1785428;79;21085;-68
2022/10/14 07:29:42;;;;;;;17.60;10.25;;;;;;;11.33;100.00;100513.95;1780340;79;21863;-68
2022/10/14 07:32:08;;;;;;;;;;;;;;;11.42;100.00;100506.93;1782412;80;21026;-68
2022/10/14 07:34:35;;;;;;;19.05;9.85;;;;;;;11.50;100.00;100508.37;1788679;80;20139;-69
2022/10/14 07:37:02;;;;;;;17.07;10.10;;;;;;;11.47;100.00;100508.89;1773916;80;21920;-71
2022/10/14 07:39:29;;;;;;;18.17;9.63;;;;;;;11.57;100.00;100504.06;1748279;79;21089;-67
2022/10/14 07:41:55;;;;;;;;;;;;;;;11.64;100.00;100504.13;1787949;78;21152;-69
2022/10/14 07:44:22;;;;;;;15.28;11.03;;;;;;;11.66;100.00;100505.21;1778870;79;20170;-67
2022/10/14 07:46:48;;;;;;;20.02;10.90;;;;;;;11.65;100.00;100515.86;1791962;79;21145;-70
2022/10/14 07:49:20;;;;;;;21.35;10.70;;;;;;;11.71;100.00;100506.13;1744493;80;22069;-70
2022/10/14 07:51:46;;;;;;;18.95;9.45;;;;;;;11.80;100.00;100506.45;1772760;79;21089;-68
2022/10/14 07:54:20;;;;;;;15.38;9.83;;;;;;;11.87;100.00;100505.69;1782025;80;21545;-67
2022/10/14 07:56:48;;;;;;;15.40;8.73;;;;;;;11.86;100.00;100506.80;1786172;79;21712;-68
2022/10/14 07:59:19;;;;;;;18.17;9.68;;;;;;;11.85;100.00;100507.86;1787339;79;21556;-70
2022/10/14 08:01:47;;;;;;;19.77;8.90;;;;;;;11.79;100.00;100504.29;1779008;78;21114;-74
2022/10/14 08:04:14;;;;;;;15.68;8.15;;;;;;;11.75;100.00;100502.34;1786097;79;21049;-73
2022/10/14 08:06:43;;;;;;;19.48;9.48;;;;;;;11.75;100.00;100500.97;1779243;80;21045;-73
2022/10/14 08:09:10;;;;;;;17.48;9.68;;;;;;;11.70;100.00;100493.53;1778567;80;21584;-72
2022/10/14 08:11:38;;;;;;;19.40;9.35;;;;;;;11.72;100.00;100497.41;1761676;80;21079;-69
2022/10/14 08:14:05;;;;;;;21.85;9.75;;;;;;;11.73;100.00;100499.03;1761979;80;21158;-70
2022/10/14 08:16:34;;;;;;;17.27;9.23;;;;;;;11.80;100.00;100503.19;1761319;80;21074;-70
2022/10/14 08:19:05;;;;;;;20.82;9.63;;;;;;;11.89;100.00;100496.72;1760198;80;21553;-69
2022/10/14 08:21:33;;;;;;;18.20;9.18;;;;;;;11.93;100.00;100496.48;1756989;80;21078;-69
2022/10/14 08:24:00;;;;;;;18.98;9.63;;;;;;;11.91;100.00;100503.55;1770513;80;21062;-69
2022/10/14 08:26:35;;;;;;;;;;;;;;;11.96;100.00;100501.41;1774679;80;21050;-69
2022/10/14 08:29:07;;;;;;;17.85;7.17;;;;;;;12.02;100.00;100495.42;1739453;81;20126;-69
2022/10/14 08:31:35;;;;;;;14.73;6.87;;;;;;;11.97;100.00;100494.87;1777578;80;21050;-69
2022/10/14 08:34:02;;;;;;;13.28;6.60;;;;;;;12.03;100.00;100485.63;1721280;82;21085;-68
2022/10/14 08:36:28;;;;;;;;;;;;;;;12.15;100.00;100494.41;1766105;80;21166;-69
2022/10/14 08:38:55;;;;;;;12.90;6.40;;;;;;;12.14;100.00;100488.70;1729513;82;20176;-68
2022/10/14 08:41:52;;;;;;;17.42;7.58;;;;;;;12.10;100.00;100497.13;1746506;81;21094;-68
2022/10/14 08:44:43;;;;;;;14.33;6.80;;;;;;;12.14;100.00;100481.05;1728162;82;21607;-68
2022/10/14 08:47:14;;;;;;;12.13;6.87;;;;;;;12.16;100.00;100476.97;1781260;80;21062;-69
2022/10/14 08:49:55;;;;;;;14.07;7.03;;;;;;;12.20;100.00;100478.63;1793420;80;21632;-69
2022/10/14 08:52:33;;;;;;;18.30;7.42;;;;;;;12.27;100.00;100481.40;1739878;81;21122;-68
2022/10/14 08:59:14;;;;;;;12.05;5.58;;;;;;;12.76;100.00;100477.78;1786247;80;21049;-69
2022/10/14 09:01:52;;;;;;;10.20;5.20;;;;;;;13.21;100.00;100473.58;1739671;81;21554;-67
2022/10/14 09:04:20;;;;;;;14.83;6.25;;;;;;;13.46;100.00;100470.30;1723038;82;21097;-69
2022/10/14 09:06:48;;;;;;;12.85;6.42;;;;;;;13.74;100.00;100470.31;1780828;80;21149;-70
2022/10/14 09:09:25;;;;;;;14.85;5.92;;;;;;;13.98;100.00;100470.55;1788420;79;21611;-70
2022/10/14 09:11:59;;;;;;;13.60;5.50;;;;;;;14.19;100.00;100459.83;1792649;79;22255;-69
2022/10/14 09:14:34;;;;;;;11.78;6.22;;;;;;;14.43;100.00;100456.77;1788505;79;20976;-70
2022/10/14 09:17:10;;;;;;;11.22;6.03;;;;;;;14.60;100.00;100466.00;1787707;79;21631;-70
2022/10/14 09:19:49;;;;;;;14.93;6.65;;;;;;;14.65;100.00;100454.21;1765166;80;21022;-69
2022/10/14 09:22:17;;;;;;;9.78;5.53;;;;;;;14.75;100.00;100458.27;1741794;80;21121;-70
2022/10/14 09:24:45;;;;;;;20.00;11.18;;;;;;;14.84;100.00;100452.48;1773767;80;21533;-69
2022/10/14 09:27:23;;;;;;;13.98;6.55;;;;;;;14.88;100.00;100442.56;1779132;79;21061;-70
2022/10/14 09:29:56;;;;;;;13.68;5.80;;;;;;;14.77;100.00;100447.28;1774835;80;21046;-70
2022/10/14 09:32:42;;;;;;;10.93;6.00;;;;;;;14.58;100.00;100441.36;1776085;80;21125;-70
2022/10/14 09:35:15;;;;;;;;;;;;;;;14.46;100.00;100451.27;1759875;80;21066;-70
2022/10/14 09:37:41;;;;;;;16.45;7.28;;;;;;;14.38;100.00;100452.66;1755433;80;20132;-70
2022/10/14 09:40:15;;;;;;;;;;;;;;;14.23;100.00;100447.23;1789372;79;21075;-70
2022/10/14 09:43:07;;;;;;;12.47;5.03;;;;;;;14.25;100.00;100450.49;1781045;79;20123;-70
2022/10/14 09:46:02;;;;;;;9.98;4.70;;;;;;;14.24;100.00;100448.05;1772000;80;21125;-70
2022/10/14 09:48:45;;;;;;;11.78;5.42;;;;;;;14.23;100.00;100444.48;1780132;79;20990;-70
2022/10/14 09:51:28;;;;;;;14.40;5.45;;;;;;;14.17;100.00;100444.20;1795147;78;20971;-70
2022/10/14 09:54:00;;;;;;;15.03;6.72;;;;;;;14.06;100.00;100449.47;1786457;79;21108;-72
2022/10/14 09:56:33;;;;;;;13.45;6.35;;;;;;;13.96;100.00;100449.46;1797803;78;21036;-70
2022/10/14 09:59:00;;;;;;;13.05;4.80;;;;;;;13.95;100.00;100441.00;1763343;80;21125;-72
2022/10/14 10:01:38;;;;;;;11.65;4.90;;;;;;;13.85;100.00;100445.12;1790856;79;22146;-71
2022/10/14 10:04:27;;;;;;;11.75;5.30;;;;;;;13.77;100.00;100449.23;1767739;80;21121;-71
2022/10/14 10:06:54;;;;;;;11.63;5.67;;;;;;;13.71;100.00;100444.05;1796362;79;22471;-70
2022/10/14 10:09:21;;;;;;;10.40;4.72;;;;;;;13.71;100.00;100457.73;1773378;80;21138;-70
2022/10/14 10:11:49;;;;;;;11.63;4.72;;;;;;;13.69;100.00;100447.59;1761803;80;21661;-71
2022/10/14 10:14:23;;;;;;;10.40;4.72;;;;;;;13.69;100.00;100450.33;1766727;81;21071;-72
2022/10/14 10:17:11;;;;;;;12.05;4.58;;;;;;;13.77;100.00;100443.77;1785599;79;21135;-72
2022/10/14 10:19:44;;;;;;;13.00;5.00;;;;;;;13.79;100.00;100451.68;1762659;80;21106;-72
2022/10/14 10:22:22;;;;;;;12.53;5.22;;;;;;;13.74;100.00;100446.23;1757456;80;21099;-72
2022/10/14 10:24:51;;;;;;;9.60;4.47;;;;;;;13.74;100.00;100456.64;1784134;79;21063;-74
2022/10/14 10:27:27;;;;;;;10.63;4.28;;;;;;;13.80;100.00;100451.97;1785796;79;21075;-72
2022/10/14 10:29:56;;;;;;;10.95;4.55;;;;;;;13.80;100.00;100450.05;1787131;79;21035;-72
2022/10/14 10:32:38;;;;;;;17.80;10.95;;;;;;;13.73;100.00;100440.48;1789539;79;21106;-69
2022/10/14 10:35:16;;;;;;;17.27;7.37;;;;;;;13.66;100.00;100444.05;1779918;79;21055;-71
2022/10/14 10:38:08;;;;;;;18.62;10.28;;;;;;;13.62;100.00;100437.47;1792266;79;21495;-70
2022/10/14 10:40:53;;;;;;;14.33;8.08;;;;;;;13.64;100.00;100437.47;1781551;79;21035;-70
2022/10/14 10:43:25;;;;;;;18.70;8.28;;;;;;;13.65;100.00;100443.77;1781803;79;21043;-70
2022/10/14 10:46:16;;;;;;;21.68;10.10;;;;;;;13.60;100.00;100443.23;1799042;79;21018;-71
2022/10/14 10:48:53;;;;;;;21.27;10.32;;;;;;;13.58;100.00;100444.59;1805201;79;21090;-71
2022/10/14 10:51:26;;;;;;;18.55;9.43;;;;;;;13.56;100.00;100442.69;1788399;79;21067;-69
2022/10/14 10:54:18;;;;;;;10.15;4.87;;;;;;;13.50;100.00;100441.84;1777628;79;22168;-71
2022/10/14 10:57:12;;;;;;;11.33;5.70;;;;;;;13.49;100.00;100440.23;1788614;79;21150;-70
2022/10/14 10:59:57;;;;;;;16.75;10.98;;;;;;;13.47;100.00;100431.46;1778142;79;21138;-70
2022/10/14 11:02:55;;;;;;;10.50;5.87;;;;;;;13.46;100.00;100429.27;1756807;81;21581;-72
2022/10/14 11:05:40;;;;;;;12.93;6.20;;;;;;;13.49;100.00;100425.73;1787417;79;21654;-72
2022/10/14 11:15:16;;;;;;;14.73;7.15;;;;;;;13.55;100.00;100429.55;1789193;79;21037;-71
2022/10/14 11:17:54;;;;;;;15.05;8.58;;;;;;;13.63;100.00;100418.61;1764613;80;21078;-72
2022/10/14 11:20:48;;;;;;;18.30;8.93;;;;;;;13.66;100.00;100419.42;1774853;79;21008;-71
2022/10/14 11:23:42;;;;;;;17.45;8.00;;;;;;;13.61;100.00;100418.87;1683172;81;21071;-70
2022/10/14 11:26:23;;;;;;;12.05;5.65;;;;;;;13.64;100.00;100422.99;1769027;81;21058;-70
2022/10/14 11:29:17;;;;;;;10.43;4.80;;;;;;;13.67;100.00;100414.23;1764151;80;21026;-69
2022/10/14 11:31:52;;;;;;;12.65;5.58;;;;;;;13.65;100.00;100410.93;1779188;79;21542;-69
2022/10/14 11:34:39;;;;;;;8.75;4.22;;;;;;;13.58;100.00;100412.58;1765982;81;21447;-71
2022/10/14 11:37:29;;;;;;;8.60;4.20;;;;;;;13.61;100.00;100407.92;1764055;79;21341;-70
2022/10/14 11:40:29;;;;;;;10.80;4.60;;;;;;;13.66;100.00;100413.41;1766172;81;21080;-70
2022/10/14 11:43:31;;;;;;;8.55;3.17;;;;;;;13.64;100.00;100404.63;1761494;79;21597;-70
2022/10/14 11:46:09;;;;;;;10.63;4.58;;;;;;;13.61;100.00;100398.35;1748729;81;21035;-69